Time;durP1;ratioP1;P1;durP2;ratioP2;P2;SDS_P1;SDS_P2;PMS_P1;PMS_P2;Temp;Humidity;BMP_temperature;BMP_pressure;BME280_temperature;BME280_humidity;BME280_pressure;Samples;Min_cycle;Max_cycle;Signal;HPM_P1;HPM_P2
2022/10/23 00:00:58;;;;;;;9.85;2.30;;;;;;;18.98;41.09;100555.13;5010369;28;20148;-52
2022/10/23 00:03:24;;;;;;;12.60;2.90;;;;;;;18.63;42.29;100545.81;5013081;28;20030;-49
2022/10/23 00:05:50;;;;;;;10.43;2.53;;;;;;;18.66;41.19;100552.63;5009547;28;20026;-52
2022/10/23 00:08:16;;;;;;;9.02;2.88;;;;;;;18.50;42.46;100554.44;5011959;28;20489;-50
2022/10/23 00:10:44;;;;;;;13.07;2.75;;;;;;;18.43;42.24;100554.69;5011412;28;20055;-52
2022/10/23 00:13:10;;;;;;;10.95;2.60;;;;;;;18.43;41.61;100564.69;5012910;28;20030;-50
2022/10/23 00:15:36;;;;;;;7.78;2.25;;;;;;;18.33;41.66;100557.38;5011842;28;20025;-55
2022/10/23 00:18:03;;;;;;;9.10;2.50;;;;;;;18.41;41.58;100556.03;5012770;28;20467;-58
2022/10/23 00:20:30;;;;;;;9.20;2.45;;;;;;;18.21;42.34;100570.28;4994056;28;20145;-58
2022/10/23 00:22:56;;;;;;;10.10;2.20;;;;;;;18.14;42.45;100554.28;5012574;28;20029;-59
2022/10/23 00:25:22;;;;;;;8.95;2.80;;;;;;;18.10;42.18;100574.03;4994139;28;20113;-58
2022/10/23 00:27:48;;;;;;;9.65;2.05;;;;;;;18.08;43.28;100562.63;5011281;28;20018;-52
2022/10/23 00:30:14;;;;;;;7.50;2.40;;;;;;;18.09;43.17;100564.25;5012312;28;20124;-49
2022/10/23 00:32:40;;;;;;;9.40;2.63;;;;;;;18.00;43.12;100555.03;5012418;28;20036;-52
2022/10/23 00:35:07;;;;;;;9.60;2.40;;;;;;;18.14;42.45;100540.72;5011515;28;20037;-52
2022/10/23 00:37:33;;;;;;;9.15;2.58;;;;;;;17.96;43.46;100543.88;5011472;28;20022;-52
2022/10/23 00:39:59;;;;;;;13.80;2.90;;;;;;;18.17;43.30;100542.94;5009891;28;20034;-51
2022/10/23 00:42:25;;;;;;;10.88;2.10;;;;;;;18.05;43.28;100542.34;5018174;28;20033;-53
2022/10/23 00:44:52;;;;;;;8.35;2.95;;;;;;;17.87;44.36;100545.44;5018992;28;20021;-53
2022/10/23 00:47:18;;;;;;;12.70;2.75;;;;;;;17.81;43.51;100541.09;5009740;28;20056;-52
2022/10/23 00:49:44;;;;;;;9.98;2.28;;;;;;;17.71;43.90;100554.50;5002840;28;20107;-53
2022/10/23 00:52:12;;;;;;;13.75;3.00;;;;;;;17.37;44.65;100547.50;5005476;28;20026;-53
2022/10/23 00:54:41;;;;;;;11.07;2.83;;;;;;;17.54;45.08;100557.38;4994672;28;20088;-53
2022/10/23 00:57:12;;;;;;;13.40;3.00;;;;;;;17.45;44.77;100554.34;5027662;28;20030;-53
2022/10/23 00:59:39;;;;;;;9.68;2.75;;;;;;;17.44;45.02;100551.91;5011570;28;20063;-53
2022/10/23 01:02:06;;;;;;;11.85;2.60;;;;;;;17.53;45.11;100550.34;5011168;28;20064;-56
2022/10/23 01:04:33;;;;;;;10.77;2.70;;;;;;;17.37;44.83;100563.72;5004000;28;20030;-56
2022/10/23 01:07:14;;;;;;;10.68;2.67;;;;;;;17.34;44.60;100552.63;5005706;28;20041;-56
2022/10/23 01:10:18;;;;;;;14.02;3.30;;;;;;;17.24;45.12;100558.75;5011611;28;20026;-56
2022/10/23 01:13:10;;;;;;;9.65;2.63;;;;;;;17.13;45.48;100560.56;4994361;28;20046;-56
2022/10/23 01:15:48;;;;;;;10.18;2.80;;;;;;;17.27;45.12;100568.25;5011703;28;20113;-56
2022/10/23 01:18:58;;;;;;;11.48;2.95;;;;;;;17.25;44.83;100573.91;5011821;28;20347;-56
2022/10/23 01:21:34;;;;;;;14.48;3.13;;;;;;;17.24;44.81;100571.47;5007746;28;20045;-56
2022/10/23 01:24:11;;;;;;;12.05;2.80;;;;;;;17.13;45.12;100567.84;5011532;28;20485;-56
2022/10/23 01:27:01;;;;;;;8.15;2.88;;;;;;;17.02;45.45;100569.63;5011625;28;20034;-55
2022/10/23 01:30:10;;;;;;;10.98;3.10;;;;;;;17.23;45.22;100570.66;5011778;28;20072;-56
2022/10/23 01:32:46;;;;;;;12.68;2.58;;;;;;;17.12;45.54;100577.84;5002721;28;20096;-56
2022/10/23 01:35:19;;;;;;;9.30;2.40;;;;;;;17.15;45.52;100576.50;5011358;28;20041;-56
2022/10/23 01:38:02;;;;;;;8.65;2.22;;;;;;;17.23;45.13;100573.34;5011342;28;20018;-56
2022/10/23 01:40:32;;;;;;;9.25;2.20;;;;;;;17.13;45.37;100584.06;5007671;28;20042;-57
2022/10/23 01:43:06;;;;;;;11.02;2.80;;;;;;;17.14;45.72;100594.63;5015635;28;20020;-55
2022/10/23 01:45:45;;;;;;;9.00;2.47;;;;;;;17.14;45.63;100600.03;5027675;28;20030;-55
2022/10/23 01:48:15;;;;;;;13.57;2.55;;;;;;;17.01;46.12;100597.75;5025200;28;20029;-57
2022/10/23 01:50:44;;;;;;;10.10;2.78;;;;;;;16.83;46.17;100592.69;5014235;28;20049;-57
2022/10/23 01:53:10;;;;;;;11.60;2.55;;;;;;;16.78;46.62;100600.75;5015082;28;20482;-57
2022/10/23 01:55:39;;;;;;;11.20;3.15;;;;;;;16.88;46.54;100603.56;5015342;28;20048;-57
2022/10/23 01:58:07;;;;;;;8.02;2.90;;;;;;;16.69;46.56;100610.31;5015516;28;20076;-57
2022/10/23 02:00:37;;;;;;;8.32;2.30;;;;;;;16.58;46.21;100612.09;5030534;28;20037;-57
2022/10/23 02:03:05;;;;;;;9.32;2.78;;;;;;;16.57;45.22;100613.97;5035198;28;20025;-57
2022/10/23 02:05:32;;;;;;;13.82;2.25;;;;;;;16.57;44.65;100611.25;5034711;28;20080;-57
2022/10/23 02:08:00;;;;;;;13.38;2.65;;;;;;;16.34;45.22;100615.03;5016078;28;20066;-57
2022/10/23 02:10:57;;;;;;;10.88;2.20;;;;;;;16.25;44.83;100616.50;5014858;28;20064;-56
2022/10/23 02:13:58;;;;;;;12.27;2.58;;;;;;;16.23;44.01;100621.34;5014747;28;20034;-55
2022/10/23 02:16:36;;;;;;;12.32;2.60;;;;;;;16.07;44.55;100598.72;5014650;28;20026;-55
2022/10/23 02:19:46;;;;;;;7.07;1.58;;;;;;;16.03;44.40;100613.75;5014884;28;20105;-55
2022/10/23 02:22:30;;;;;;;11.15;2.28;;;;;;;15.93;44.46;100613.59;5003104;28;20122;-56
2022/10/23 02:25:10;;;;;;;10.93;1.95;;;;;;;15.90;44.74;100611.41;5012443;28;20034;-56
2022/10/23 02:27:44;;;;;;;9.68;2.60;;;;;;;15.91;44.08;100617.63;4993979;28;20437;-56
2022/10/23 02:30:14;;;;;;;10.07;2.22;;;;;;;15.77;44.68;100623.38;4995352;28;20034;-56
2022/10/23 02:32:46;;;;;;;8.45;1.90;;;;;;;15.69;45.54;100633.75;4995102;28;20053;-56
2022/10/23 02:35:13;;;;;;;12.77;2.50;;;;;;;15.67;45.74;100639.38;4995533;28;20407;-56
2022/10/23 02:37:39;;;;;;;8.63;2.28;;;;;;;15.53;45.98;100636.13;5034362;28;20025;-56
2022/10/23 02:40:07;;;;;;;10.82;2.50;;;;;;;15.61;45.28;100644.91;5031061;28;20029;-57
2022/10/23 02:42:44;;;;;;;9.82;2.13;;;;;;;15.53;45.23;100635.31;5014328;28;20486;-55
2022/10/23 02:45:32;;;;;;;6.97;2.28;;;;;;;15.50;45.76;100643.91;5014747;28;20367;-57
2022/10/23 02:48:04;;;;;;;9.95;2.20;;;;;;;15.33;46.40;100649.28;5014076;28;20112;-56
2022/10/23 02:50:39;;;;;;;10.68;2.08;;;;;;;15.27;46.53;100647.56;5012783;28;20054;-55
2022/10/23 02:53:31;;;;;;;8.95;1.90;;;;;;;15.30;45.69;100636.28;5001176;28;20436;-56
2022/10/23 02:56:13;;;;;;;4.20;1.70;;;;;;;15.27;46.12;100642.16;5003555;28;20486;-56
2022/10/23 02:58:58;;;;;;;11.10;2.05;;;;;;;15.25;46.37;100646.97;5009654;28;20033;-57
2022/10/23 03:01:30;;;;;;;4.95;1.60;;;;;;;15.20;45.98;100642.28;5010672;28;20498;-56
2022/10/23 03:04:00;;;;;;;8.18;1.90;;;;;;;15.20;45.64;100647.69;5008148;28;20025;-56
2022/10/23 03:06:26;;;;;;;9.75;2.05;;;;;;;15.27;45.46;100642.16;5006149;28;20137;-56
2022/10/23 03:08:57;;;;;;;12.18;2.00;;;;;;;15.26;45.30;100656.69;5010368;28;20029;-56
2022/10/23 03:11:24;;;;;;;7.15;1.88;;;;;;;15.11;46.09;100651.03;4993878;28;20038;-57
2022/10/23 03:13:50;;;;;;;7.68;2.00;;;;;;;15.07;46.25;100647.16;4993495;28;20410;-57
2022/10/23 03:16:16;;;;;;;7.10;1.75;;;;;;;15.05;46.40;100650.09;5013520;28;20037;-56
2022/10/23 03:18:43;;;;;;;7.68;1.98;;;;;;;15.10;46.44;100662.84;5013508;28;20139;-56
2022/10/23 03:21:09;;;;;;;6.70;2.00;;;;;;;14.99;46.94;100668.06;5009694;28;20391;-56
2022/10/23 03:23:35;;;;;;;8.63;2.13;;;;;;;14.99;47.06;100668.06;4993887;28;20085;-56
2022/10/23 03:26:01;;;;;;;7.05;2.10;;;;;;;14.99;47.40;100669.91;4993968;28;20027;-56
2022/10/23 03:28:28;;;;;;;9.48;1.95;;;;;;;15.05;47.77;100677.88;4993887;28;20542;-56
2022/10/23 03:30:54;;;;;;;5.47;1.80;;;;;;;14.98;47.46;100685.25;4994653;28;20031;-56
2022/10/23 03:33:21;;;;;;;6.47;1.60;;;;;;;14.98;47.38;100684.44;5013501;28;20041;-56
2022/10/23 03:35:48;;;;;;;11.35;1.90;;;;;;;15.00;47.39;100691.25;5013278;28;20382;-56
2022/10/23 03:38:14;;;;;;;7.45;1.85;;;;;;;14.93;47.37;100678.94;5013041;28;20035;-57
2022/10/23 03:40:42;;;;;;;9.80;2.15;;;;;;;14.92;47.00;100693.50;5012596;28;20457;-56
2022/10/23 03:43:08;;;;;;;8.27;1.88;;;;;;;14.90;46.86;100698.31;5011985;28;20053;-57
2022/10/23 03:45:37;;;;;;;11.73;2.10;;;;;;;15.06;46.14;100702.97;5012075;28;20392;-57
2022/10/23 03:48:04;;;;;;;9.15;2.13;;;;;;;15.05;46.61;100701.31;5011834;28;20139;-58
2022/10/23 03:50:30;;;;;;;8.15;1.98;;;;;;;14.96;46.69;100708.94;5012414;28;20048;-56
2022/10/23 03:52:57;;;;;;;6.68;1.85;;;;;;;14.95;46.90;100720.78;5011772;28;20486;-56
2022/10/23 03:55:25;;;;;;;6.03;1.80;;;;;;;14.96;46.73;100721.63;5012784;28;20040;-56
2022/10/23 03:57:55;;;;;;;7.65;2.35;;;;;;;14.89;46.25;100719.06;5006899;28;20022;-56
2022/10/23 04:00:22;;;;;;;9.40;1.98;;;;;;;14.77;46.41;100729.03;4993011;28;20106;-57
2022/10/23 04:02:48;;;;;;;9.32;2.25;;;;;;;14.82;46.41;100714.81;4997926;28;20047;-57
2022/10/23 04:05:14;;;;;;;8.35;2.15;;;;;;;14.83;45.91;100743.44;5012667;28;20037;-57
2022/10/23 04:07:40;;;;;;;6.40;1.77;;;;;;;14.84;45.81;100740.50;5011418;28;20026;-57
2022/10/23 04:10:07;;;;;;;6.90;2.00;;;;;;;14.88;45.92;100751.59;5012378;28;20034;-57
2022/10/23 04:12:34;;;;;;;8.77;1.75;;;;;;;14.83;45.78;100749.66;5011495;28;20498;-57
2022/10/23 04:15:00;;;;;;;7.60;1.70;;;;;;;14.73;45.86;100760.19;5010852;28;20021;-58
2022/10/23 04:17:26;;;;;;;6.38;1.45;;;;;;;14.64;46.01;100761.59;5012430;28;20037;-58
2022/10/23 04:19:53;;;;;;;4.53;1.60;;;;;;;14.78;45.60;100769.22;5012105;28;20486;-55
2022/10/23 04:22:19;;;;;;;5.82;1.55;;;;;;;14.76;46.01;100770.47;5011222;28;20029;-58
2022/10/23 04:24:46;;;;;;;8.75;1.83;;;;;;;14.73;45.47;100771.78;5012793;28;20422;-57
2022/10/23 04:27:13;;;;;;;4.50;1.58;;;;;;;14.82;45.89;100780.31;5011588;28;20462;-57
2022/10/23 04:29:40;;;;;;;8.35;1.48;;;;;;;14.83;45.64;100773.91;5011945;28;20482;-57
2022/10/23 04:32:08;;;;;;;5.22;1.60;;;;;;;14.64;45.86;100780.44;5011340;28;20140;-57
2022/10/23 04:34:35;;;;;;;6.30;1.60;;;;;;;14.74;45.49;100788.78;5012238;28;20369;-57
2022/10/23 04:37:01;;;;;;;12.00;1.80;;;;;;;14.63;45.54;100795.78;5011314;28;20037;-56
2022/10/23 04:39:27;;;;;;;8.52;1.60;;;;;;;14.74;45.30;100794.97;5011969;28;20133;-57
2022/10/23 04:41:53;;;;;;;3.97;1.45;;;;;;;14.79;45.52;100802.34;5011166;28;20462;-56
2022/10/23 04:44:19;;;;;;;6.38;1.58;;;;;;;14.74;45.81;100803.06;5012671;28;20026;-56
2022/10/23 04:46:45;;;;;;;6.70;1.45;;;;;;;14.78;45.03;100820.41;5011440;28;20033;-56
2022/10/23 04:49:12;;;;;;;4.35;1.55;;;;;;;14.65;45.52;100828.69;5012570;28;20029;-56
2022/10/23 04:51:38;;;;;;;8.25;1.70;;;;;;;14.68;45.22;100830.13;5011389;28;20085;-56
2022/10/23 04:54:04;;;;;;;8.38;1.58;;;;;;;14.61;45.70;100821.34;5011981;28;20074;-56
2022/10/23 04:56:30;;;;;;;4.95;1.50;;;;;;;14.87;45.25;100820.03;5011013;28;20026;-56
2022/10/23 04:58:57;;;;;;;9.82;1.77;;;;;;;14.78;45.80;100830.38;4997919;28;20546;-56
2022/10/23 05:01:23;;;;;;;3.90;1.20;;;;;;;14.50;45.61;100829.16;5007351;28;20040;-56
2022/10/23 05:03:49;;;;;;;4.68;1.40;;;;;;;14.38;46.03;100836.38;5026595;28;20026;-56
2022/10/23 05:06:15;;;;;;;7.13;1.90;;;;;;;14.29;46.31;100829.69;5029806;28;20029;-56
2022/10/23 05:08:41;;;;;;;3.53;1.30;;;;;;;14.40;45.90;100831.56;5012064;28;20058;-56
2022/10/23 05:11:07;;;;;;;5.20;1.38;;;;;;;14.23;46.63;100835.97;5011363;28;20025;-56
2022/10/23 05:13:34;;;;;;;6.72;1.95;;;;;;;14.25;46.41;100826.63;5011202;28;20022;-56
2022/10/23 05:16:00;;;;;;;5.85;1.30;;;;;;;14.25;46.61;100825.78;5011722;28;20037;-56
2022/10/23 05:18:34;;;;;;;5.97;1.40;;;;;;;14.20;46.02;100820.28;5013613;28;20026;-56
2022/10/23 05:21:13;;;;;;;4.30;1.38;;;;;;;14.12;46.12;100817.94;5030968;28;20489;-56
2022/10/23 05:23:42;;;;;;;4.82;1.80;;;;;;;14.07;46.63;100813.22;5031347;28;20389;-56
2022/10/23 05:26:09;;;;;;;4.90;1.48;;;;;;;14.09;46.56;100819.19;5024679;28;20056;-56
2022/10/23 05:28:35;;;;;;;6.60;1.40;;;;;;;13.88;47.28;100817.84;5015481;28;20444;-56
2022/10/23 05:31:04;;;;;;;5.50;1.63;;;;;;;13.97;47.06;100811.09;5014984;28;20018;-56
2022/10/23 05:33:33;;;;;;;6.07;1.60;;;;;;;13.93;46.86;100815.28;5015416;28;20029;-56
2022/10/23 05:36:00;;;;;;;5.25;1.40;;;;;;;13.98;46.92;100828.88;4965417;28;20445;-56
2022/10/23 05:38:28;;;;;;;6.40;1.23;;;;;;;13.95;46.48;100823.16;5015320;28;20081;-56
2022/10/23 05:40:54;;;;;;;6.10;1.80;;;;;;;13.91;47.04;100833.53;5015307;28;20037;-56
2022/10/23 05:43:20;;;;;;;5.35;1.52;;;;;;;14.00;46.27;100842.13;5015100;28;20022;-56
2022/10/23 05:45:47;;;;;;;14.38;2.00;;;;;;;13.94;46.05;100849.22;5015364;28;20084;-56
2022/10/23 05:48:16;;;;;;;6.97;1.65;;;;;;;13.95;46.65;100850.88;5015250;28;20030;-56
2022/10/23 05:50:42;;;;;;;4.22;1.30;;;;;;;13.90;47.01;100857.97;5014753;28;20114;-56
2022/10/23 05:53:11;;;;;;;7.90;1.63;;;;;;;13.86;46.41;100863.00;5015429;28;20036;-56
2022/10/23 05:55:37;;;;;;;7.20;1.60;;;;;;;13.75;46.86;100861.06;5014795;28;20029;-56
2022/10/23 05:58:04;;;;;;;9.93;1.70;;;;;;;13.84;47.41;100864.28;5008393;28;20057;-55
2022/10/23 06:00:30;;;;;;;5.18;1.20;;;;;;;13.79;47.11;100878.41;4995271;28;20038;-56
2022/10/23 06:02:59;;;;;;;2.45;1.13;;;;;;;13.84;47.32;100883.09;4995343;28;20046;-56
2022/10/23 06:05:25;;;;;;;5.13;1.08;;;;;;;13.79;46.72;100886.47;5008871;28;20030;-54
2022/10/23 06:07:52;;;;;;;6.20;1.40;;;;;;;13.84;46.60;100907.31;5014788;28;20029;-55
2022/10/23 06:10:18;;;;;;;5.00;1.52;;;;;;;13.91;46.43;100891.91;5014378;28;20545;-55
2022/10/23 06:12:44;;;;;;;4.38;1.42;;;;;;;13.83;47.21;100897.63;5014777;28;20034;-55
2022/10/23 06:15:10;;;;;;;5.45;2.00;;;;;;;13.86;46.58;100892.59;4996889;28;20451;-56
2022/10/23 06:17:36;;;;;;;6.75;1.38;;;;;;;13.78;47.10;100903.66;5014899;28;20026;-56
2022/10/23 06:20:03;;;;;;;5.88;1.58;;;;;;;13.77;47.77;100901.19;5014256;28;20033;-54
2022/10/23 06:22:29;;;;;;;5.55;1.15;;;;;;;13.73;47.44;100896.25;5014318;28;20033;-53
2022/10/23 06:24:55;;;;;;;13.00;1.50;;;;;;;13.79;47.14;100896.41;5014512;28;20390;-54
2022/10/23 06:27:22;;;;;;;10.50;1.65;;;;;;;13.71;47.84;100884.91;5014697;28;20105;-55
2022/10/23 06:29:48;;;;;;;9.18;1.63;;;;;;;13.88;46.75;100897.72;5014210;28;20117;-55
2022/10/23 06:32:14;;;;;;;8.80;1.90;;;;;;;13.81;47.00;100895.13;5014584;28;20371;-56
2022/10/23 06:34:41;;;;;;;10.65;1.92;;;;;;;13.79;47.25;100893.72;5014320;28;20034;-53
2022/10/23 06:37:07;;;;;;;7.97;1.63;;;;;;;13.80;47.45;100904.25;5014033;28;20105;-55
2022/10/23 06:39:35;;;;;;;6.65;1.73;;;;;;;13.74;47.28;100905.16;5013758;28;20113;-55
2022/10/23 06:42:02;;;;;;;6.78;1.23;;;;;;;13.77;46.97;100912.78;5014072;28;20101;-56
2022/10/23 06:44:29;;;;;;;5.32;1.40;;;;;;;13.78;46.16;100913.59;5014198;28;20026;-56
2022/10/23 06:46:55;;;;;;;15.70;2.00;;;;;;;13.81;46.36;100913.97;5014058;28;20030;-55
2022/10/23 06:49:21;;;;;;;8.75;1.30;;;;;;;13.84;46.01;100923.47;5013571;28;20474;-52
2022/10/23 06:51:47;;;;;;;6.07;1.48;;;;;;;13.93;45.67;100930.97;5014381;28;20038;-57
2022/10/23 06:54:14;;;;;;;3.00;1.05;;;;;;;13.82;45.86;100934.44;5014266;28;20520;-56
2022/10/23 06:56:40;;;;;;;6.85;1.33;;;;;;;13.80;45.98;100943.78;5013319;28;20084;-56
2022/10/23 06:59:06;;;;;;;6.57;1.30;;;;;;;13.81;45.92;100945.44;4998720;28;20026;-57
2022/10/23 07:01:33;;;;;;;3.20;1.30;;;;;;;13.89;45.48;100954.03;4994468;28;20518;-56
2022/10/23 07:03:59;;;;;;;4.22;1.00;;;;;;;13.83;45.78;100949.56;4994285;28;20026;-56
2022/10/23 07:06:26;;;;;;;5.95;1.00;;;;;;;13.68;46.01;100963.38;4994125;28;20498;-56
2022/10/23 07:08:52;;;;;;;4.20;1.40;;;;;;;13.74;45.95;100958.97;4994091;28;20226;-56
2022/10/23 07:11:18;;;;;;;4.82;1.10;;;;;;;13.78;46.18;100952.09;4993817;28;20084;-56
2022/10/23 07:13:45;;;;;;;4.60;1.05;;;;;;;13.76;46.30;100959.53;5009998;28;20022;-56
2022/10/23 07:16:15;;;;;;;3.67;1.20;;;;;;;13.69;46.44;100958.81;5013393;28;20399;-57
2022/10/23 07:18:41;;;;;;;6.03;1.42;;;;;;;13.56;46.97;100964.34;5013588;28;20033;-57
2022/10/23 07:21:08;;;;;;;3.28;1.00;;;;;;;13.53;46.91;100965.59;5012995;28;20021;-56
2022/10/23 07:23:34;;;;;;;5.53;1.20;;;;;;;13.50;47.05;100965.22;5013457;28;20034;-56
2022/10/23 07:26:14;;;;;;;9.50;1.67;;;;;;;13.52;47.20;100971.19;5013366;28;20022;-56
2022/10/23 07:28:43;;;;;;;5.40;1.20;;;;;;;13.43;47.61;100959.88;5013289;28;20558;-57
2022/10/23 07:31:09;;;;;;;1.92;0.75;;;;;;;13.34;48.13;100955.84;5012635;28;20050;-56
2022/10/23 07:33:36;;;;;;;4.45;1.10;;;;;;;13.48;46.92;100960.88;5013387;28;20032;-56
2022/10/23 07:36:07;;;;;;;5.63;1.30;;;;;;;13.30;47.54;100966.22;5013595;28;20482;-56
2022/10/23 07:38:34;;;;;;;2.42;1.08;;;;;;;13.49;47.02;100959.00;5014196;28;20044;-56
2022/10/23 07:41:01;;;;;;;4.13;1.20;;;;;;;13.32;47.66;100964.13;5013176;28;20022;-57
2022/10/23 07:43:28;;;;;;;4.15;1.13;;;;;;;13.35;47.74;100971.75;5013575;28;20022;-58
2022/10/23 07:45:54;;;;;;;6.47;1.30;;;;;;;13.27;46.62;100955.94;5012571;28;20301;-58
2022/10/23 07:48:22;;;;;;;2.53;0.90;;;;;;;13.32;46.59;100958.75;5012671;28;20026;-56
2022/10/23 07:50:50;;;;;;;4.00;1.00;;;;;;;13.31;47.10;100961.66;5010920;28;20490;-58
2022/10/23 07:53:20;;;;;;;3.47;1.35;;;;;;;13.31;46.71;100962.47;4998872;28;20030;-56
2022/10/23 07:55:58;;;;;;;10.25;1.85;;;;;;;13.29;46.81;100975.34;5032568;28;20057;-57
2022/10/23 07:58:25;;;;;;;5.47;1.77;;;;;;;13.26;46.76;100973.06;5010026;28;20030;-56
2022/10/23 08:01:00;;;;;;;5.22;1.10;;;;;;;13.21;47.02;100980.97;4992765;28;20034;-56
2022/10/23 08:03:28;;;;;;;4.67;0.93;;;;;;;13.20;47.49;100982.81;4998481;28;20032;-56
2022/10/23 08:05:55;;;;;;;5.68;1.10;;;;;;;13.25;47.34;100978.69;5012733;28;20056;-56
2022/10/23 08:08:23;;;;;;;6.40;1.30;;;;;;;13.20;47.21;100987.38;5012637;28;20022;-56
2022/10/23 08:10:50;;;;;;;5.90;1.15;;;;;;;13.16;47.62;100991.56;5026885;28;20079;-56
2022/10/23 08:13:19;;;;;;;3.17;1.00;;;;;;;13.09;48.71;100993.44;5032143;28;20068;-56
2022/10/23 08:15:47;;;;;;;4.30;1.05;;;;;;;13.18;48.08;101001.03;5032143;28;20128;-57
2022/10/23 08:18:14;;;;;;;3.33;1.00;;;;;;;13.09;47.70;100985.38;5032260;28;20071;-56
2022/10/23 08:20:46;;;;;;;4.80;1.27;;;;;;;13.09;47.29;100998.81;5023941;28;20057;-56
2022/10/23 08:23:16;;;;;;;4.88;1.20;;;;;;;13.12;46.92;100995.72;5012246;28;20495;-56
2022/10/23 08:25:43;;;;;;;5.80;1.10;;;;;;;13.12;47.36;100991.16;5012453;28;20049;-56
2022/10/23 08:28:09;;;;;;;5.15;1.02;;;;;;;13.02;47.73;100990.00;5012307;28;20037;-56
2022/10/23 08:30:36;;;;;;;9.02;1.55;;;;;;;13.02;48.26;100992.69;5012153;28;20026;-56
2022/10/23 08:33:06;;;;;;;3.53;0.77;;;;;;;12.99;48.04;100988.56;5011992;28;20072;-56
2022/10/23 08:35:38;;;;;;;3.47;1.00;;;;;;;13.02;48.14;100998.88;5012014;28;20482;-56
2022/10/23 08:38:05;;;;;;;3.13;0.88;;;;;;;12.98;48.04;101000.34;5010975;28;20033;-56
2022/10/23 08:40:33;;;;;;;3.13;1.10;;;;;;;13.02;47.97;100990.00;5011778;28;20116;-56
2022/10/23 08:43:23;;;;;;;4.28;1.10;;;;;;;13.04;48.02;100998.66;5010684;28;20080;-56
2022/10/23 08:45:58;;;;;;;5.30;1.10;;;;;;;13.02;48.12;100998.06;5012164;28;20022;-56
2022/10/23 08:48:34;;;;;;;6.93;1.10;;;;;;;12.98;48.51;101003.03;5009650;28;20084;-55
2022/10/23 08:51:15;;;;;;;7.25;1.25;;;;;;;12.85;48.43;101001.28;5011309;28;20056;-55
2022/10/23 08:54:04;;;;;;;4.80;0.90;;;;;;;13.03;48.14;101008.59;5009777;28;20038;-56
2022/10/23 08:56:36;;;;;;;5.10;1.00;;;;;;;13.02;47.91;101019.56;5011856;28;20371;-56
2022/10/23 08:59:27;;;;;;;5.65;1.02;;;;;;;13.08;47.51;101013.31;5009975;28;20026;-56
2022/10/23 09:02:10;;;;;;;6.05;1.30;;;;;;;12.89;47.75;101005.19;5011752;28;20034;-56
2022/10/23 09:04:36;;;;;;;3.70;0.90;;;;;;;12.88;47.98;101016.13;5011479;28;20026;-56
2022/10/23 09:07:19;;;;;;;4.05;0.93;;;;;;;12.87;48.16;101009.94;5011447;28;20052;-56
2022/10/23 09:10:12;;;;;;;4.75;1.20;;;;;;;12.89;48.43;101015.09;4991835;28;20042;-56
2022/10/23 09:12:38;;;;;;;4.20;1.13;;;;;;;12.90;47.87;101017.56;4995333;28;20037;-56
2022/10/23 09:15:30;;;;;;;4.60;1.00;;;;;;;12.89;47.38;101017.78;5010562;28;20222;-55
2022/10/23 09:18:10;;;;;;;4.65;1.02;;;;;;;12.89;47.71;101012.41;5010437;28;20080;-55
2022/10/23 09:20:36;;;;;;;3.40;0.77;;;;;;;12.95;47.75;101024.97;5011420;28;20034;-56
2022/10/23 09:23:15;;;;;;;6.63;1.27;;;;;;;12.87;48.45;101019.84;5010493;28;20029;-56
2022/10/23 09:25:42;;;;;;;4.40;1.27;;;;;;;12.87;48.14;101022.53;5011560;28;20053;-56
2022/10/23 09:28:29;;;;;;;6.00;1.17;;;;;;;12.82;46.98;101027.72;5010042;28;20030;-56
2022/10/23 09:31:09;;;;;;;6.72;0.90;;;;;;;12.89;47.21;101023.16;5011343;28;20108;-56
2022/10/23 09:33:38;;;;;;;2.60;1.20;;;;;;;12.89;46.64;101028.53;5010157;28;20549;-54
2022/10/23 09:36:12;;;;;;;1.60;0.80;;;;;;;12.92;46.87;101034.28;5011519;28;20093;-56
2022/10/23 09:38:47;;;;;;;2.92;0.50;;;;;;;12.91;47.40;101038.00;5010514;28;20068;-55
2022/10/23 09:41:30;;;;;;;4.07;1.10;;;;;;;12.84;47.24;101042.63;5011097;28;20387;-56
2022/10/23 09:44:18;;;;;;;2.35;0.82;;;;;;;12.84;47.28;101047.97;5010113;28;20311;-56
2022/10/23 09:46:46;;;;;;;4.05;0.80;;;;;;;12.82;47.49;101052.72;5011399;28;20113;-56
2022/10/23 09:49:24;;;;;;;4.53;1.05;;;;;;;12.83;47.47;101054.41;5009997;28;20471;-56
2022/10/23 09:52:10;;;;;;;4.43;0.80;;;;;;;12.68;47.52;101064.59;5011240;28;20042;-56
2022/10/23 09:54:43;;;;;;;3.15;0.80;;;;;;;12.78;46.71;101059.59;4996525;28;20618;-56
2022/10/23 09:57:42;;;;;;;2.22;1.08;;;;;;;12.68;46.79;101064.59;5009288;28;20610;-56
2022/10/23 10:00:17;;;;;;;7.85;0.90;;;;;;;12.80;46.62;101062.88;5009526;28;20037;-56
2022/10/23 10:02:54;;;;;;;2.03;0.80;;;;;;;12.81;47.13;101072.56;5010047;28;20103;-55
2022/10/23 10:05:29;;;;;;;3.55;0.85;;;;;;;12.81;47.39;101069.88;5011171;28;20022;-56
2022/10/23 10:08:11;;;;;;;1.70;0.80;;;;;;;12.87;47.72;101063.66;5009977;28;20030;-56
2022/10/23 10:10:47;;;;;;;3.30;0.75;;;;;;;12.79;47.86;101066.59;5010904;28;20041;-56
2022/10/23 10:13:31;;;;;;;3.08;0.75;;;;;;;12.88;47.72;101070.69;5012049;28;20637;-56
2022/10/23 10:16:05;;;;;;;3.70;0.93;;;;;;;12.89;47.54;101069.66;5013799;28;20084;-56
2022/10/23 10:19:05;;;;;;;1.70;0.70;;;;;;;12.87;47.40;101069.03;5014817;28;20022;-56
2022/10/23 10:21:50;;;;;;;2.67;0.82;;;;;;;12.78;47.22;101069.53;5013771;28;20034;-56
2022/10/23 10:24:22;;;;;;;1.85;0.60;;;;;;;12.82;47.43;101070.72;5014633;28;20038;-56
2022/10/23 10:27:29;;;;;;;4.32;1.02;;;;;;;12.68;47.97;101072.66;5014099;28;20065;-55
2022/10/23 10:30:14;;;;;;;2.60;0.98;;;;;;;12.61;48.18;101069.19;4996059;28;20145;-56
2022/10/23 10:33:18;;;;;;;2.78;0.65;;;;;;;12.56;48.80;101063.63;5015048;28;20359;-56
2022/10/23 10:36:09;;;;;;;3.25;0.98;;;;;;;12.43;49.48;101070.69;5013143;28;20045;-56
2022/10/23 10:38:58;;;;;;;2.97;0.93;;;;;;;12.33;49.20;101077.56;5014465;28;20030;-56
2022/10/23 10:41:46;;;;;;;2.53;0.60;;;;;;;12.37;48.69;101079.59;5013224;28;20045;-56
2022/10/23 10:44:37;;;;;;;2.35;0.98;;;;;;;12.39;48.49;101072.16;5014092;28;20033;-55
2022/10/23 10:47:26;;;;;;;3.40;0.70;;;;;;;12.32;48.58;101081.25;5012813;28;20087;-56
2022/10/23 10:50:03;;;;;;;3.80;0.90;;;;;;;12.26;48.61;101084.78;5012568;28;20042;-56
2022/10/23 10:52:54;;;;;;;5.38;0.90;;;;;;;12.38;48.48;101093.81;5013978;28;20037;-56
2022/10/23 10:55:36;;;;;;;3.33;1.17;;;;;;;12.28;48.19;101090.78;5013002;28;20129;-55
2022/10/23 10:58:14;;;;;;;2.53;0.90;;;;;;;12.31;48.34;101096.53;5013466;28;20033;-56
2022/10/23 11:00:43;;;;;;;4.30;1.00;;;;;;;12.32;48.69;101092.81;5012597;28;20032;-56
2022/10/23 11:03:24;;;;;;;2.25;0.90;;;;;;;12.32;48.69;101092.81;5013687;28;20034;-56
2022/10/23 11:05:52;;;;;;;4.22;0.88;;;;;;;12.35;48.70;101092.41;5012970;28;20026;-56
2022/10/23 11:08:37;;;;;;;3.33;0.82;;;;;;;12.25;48.94;101093.88;5013740;28;20030;-56
2022/10/23 11:11:17;;;;;;;2.67;0.75;;;;;;;12.43;47.91;101094.84;5012390;28;20030;-56
2022/10/23 11:13:44;;;;;;;4.50;1.23;;;;;;;12.34;47.72;101101.50;5013662;28;20030;-55
2022/10/23 11:16:10;;;;;;;2.58;1.15;;;;;;;12.19;48.46;101092.88;5012635;28;20038;-56
2022/10/23 11:18:39;;;;;;;3.92;0.95;;;;;;;12.17;48.75;101103.00;5013385;28;20117;-55
2022/10/23 11:21:27;;;;;;;3.08;1.05;;;;;;;12.25;49.32;101115.34;5012519;28;20030;-56
2022/10/23 11:24:08;;;;;;;3.50;0.90;;;;;;;12.28;49.22;101123.81;5012364;28;20026;-56
2022/10/23 11:26:45;;;;;;;5.65;0.77;;;;;;;12.29;49.70;101121.97;5012348;28;20026;-56
2022/10/23 11:29:17;;;;;;;2.15;0.80;;;;;;;12.41;48.89;101113.03;5013043;28;20088;-56
2022/10/23 11:32:28;;;;;;;4.68;1.00;;;;;;;12.24;49.19;101122.59;5012376;28;20065;-56
2022/10/23 11:35:21;;;;;;;3.08;0.68;;;;;;;12.19;49.01;101117.00;4975372;28;20038;-56
2022/10/23 11:38:15;;;;;;;3.35;0.88;;;;;;;12.08;49.27;101123.03;5013218;28;20136;-56
2022/10/23 11:40:48;;;;;;;2.45;0.70;;;;;;;11.95;49.76;101133.78;5011189;28;20080;-56
2022/10/23 11:43:33;;;;;;;3.55;0.88;;;;;;;11.96;49.94;101130.88;5013292;28;20073;-56
2022/10/23 11:46:28;;;;;;;3.33;0.68;;;;;;;12.10;50.13;101129.84;5011596;28;20123;-56
2022/10/23 11:48:55;;;;;;;2.75;0.70;;;;;;;12.07;50.11;101127.56;4993130;28;20090;-56